createdAt,value
2023-03-27T00:02:30.471Z,5.08
2023-03-27T00:04:57.089Z,5.12
2023-03-27T00:07:25.854Z,5.16
2023-03-27T00:09:53.467Z,5.14
2023-03-27T00:12:20.002Z,5.19
2023-03-27T00:14:49.003Z,5.19
2023-03-27T00:17:15.570Z,5.19
2023-03-27T00:19:44.970Z,5.22
2023-03-27T00:22:11.606Z,5.22
2023-03-27T00:24:40.648Z,5.21
2023-03-27T00:27:07.241Z,5.16
2023-03-27T00:29:34.503Z,5.20
2023-03-27T00:32:01.037Z,5.19
2023-03-27T00:34:29.043Z,5.23
2023-03-27T00:36:56.047Z,5.23
2023-03-27T00:39:24.911Z,5.19
2023-03-27T00:41:55.479Z,5.27
2023-03-27T00:44:25.169Z,5.28
2023-03-27T00:46:55.233Z,5.28
2023-03-27T00:49:23.842Z,5.25
2023-03-27T00:51:53.724Z,5.22
2023-03-27T00:54:26.697Z,5.07
2023-03-27T00:57:00.212Z,5.21
2023-03-27T00:59:31.848Z,5.25
2023-03-27T01:02:02.262Z,5.21
2023-03-27T01:04:31.443Z,5.26
2023-03-27T01:06:58.406Z,5.28
2023-03-27T01:09:27.156Z,5.26
2023-03-27T01:12:06.131Z,5.29
2023-03-27T01:15:07.299Z,5.22
2023-03-27T01:17:49.358Z,5.23
2023-03-27T01:20:36.910Z,5.21
2023-03-27T01:24:00.549Z,5.22
2023-03-27T01:26:52.666Z,5.16
2023-03-27T01:29:30.544Z,5.18
2023-03-27T01:32:06.266Z,5.19
2023-03-27T01:34:42.701Z,5.19
2023-03-27T01:37:34.230Z,5.19
2023-03-27T01:40:12.817Z,5.18
2023-03-27T01:42:50.921Z,5.21
2023-03-27T01:45:21.756Z,5.20
2023-03-27T01:48:06.931Z,5.20
2023-03-27T01:50:46.754Z,5.18
2023-03-27T01:53:40.686Z,5.23
2023-03-27T01:56:26.104Z,5.23
2023-03-27T01:59:04.057Z,5.22
2023-03-27T02:01:37.565Z,5.22
2023-03-27T02:04:13.355Z,5.21
2023-03-27T02:06:45.290Z,5.23
2023-03-27T02:09:22.011Z,5.21
2023-03-27T02:12:16.564Z,5.23
2023-03-27T02:14:51.408Z,5.23
2023-03-27T02:17:20.425Z,5.19
2023-03-27T02:19:54.468Z,5.22
2023-03-27T02:22:37.590Z,5.18
2023-03-27T02:25:24.234Z,5.18
2023-03-27T02:27:59.261Z,5.16
2023-03-27T02:30:36.804Z,5.14
2023-03-27T02:33:19.055Z,5.17
2023-03-27T02:36:11.182Z,5.18
2023-03-27T02:38:49.613Z,5.19
2023-03-27T02:41:38.715Z,5.19
2023-03-27T02:44:29.987Z,5.17
2023-03-27T02:47:18.562Z,5.17
2023-03-27T02:50:00.304Z,5.22
2023-03-27T02:52:31.947Z,5.19
2023-03-27T02:55:23.952Z,5.20
2023-03-27T02:58:00.252Z,5.20
2023-03-27T03:00:33.807Z,5.21
2023-03-27T03:03:33.654Z,5.21
2023-03-27T03:06:00.737Z,5.20
2023-03-27T03:08:30.449Z,5.19
2023-03-27T03:11:06.088Z,5.19
2023-03-27T03:13:35.454Z,5.19
2023-03-27T03:16:02.054Z,5.14
2023-03-27T03:18:28.597Z,5.18
2023-03-27T03:20:55.567Z,5.15
2023-03-27T03:23:23.145Z,5.18
2023-03-27T03:25:56.700Z,5.16
2023-03-27T03:28:29.970Z,5.14
2023-03-27T03:30:59.250Z,5.14
2023-03-27T03:33:30.071Z,5.16
2023-03-27T03:36:00.724Z,5.14
2023-03-27T03:38:29.596Z,5.08
2023-03-27T03:41:05.435Z,5.12
2023-03-27T03:43:34.345Z,5.05
2023-03-27T03:46:04.049Z,5.07
2023-03-27T03:48:33.058Z,5.07
2023-03-27T03:50:59.717Z,5.06
2023-03-27T03:53:26.688Z,5.07
2023-03-27T03:55:58.519Z,4.99
2023-03-27T03:58:34.852Z,4.96
2023-03-27T04:01:04.467Z,4.94
2023-03-27T04:03:34.114Z,4.95
2023-03-27T04:06:07.370Z,4.92
2023-03-27T04:08:37.293Z,4.92
2023-03-27T04:11:07.069Z,4.92
2023-03-27T04:13:38.406Z,4.89
2023-03-27T04:16:08.180Z,4.92
2023-03-27T04:18:40.748Z,4.97
2023-03-27T04:21:14.807Z,4.99
2023-03-27T04:23:46.040Z,5.05
2023-03-27T04:26:16.073Z,5.03
2023-03-27T04:28:45.283Z,5.05
2023-03-27T04:31:14.289Z,5.07
2023-03-27T04:33:46.701Z,5.07
2023-03-27T04:36:18.854Z,5.04
2023-03-27T04:38:48.134Z,4.98
2023-03-27T04:41:14.906Z,4.95
2023-03-27T04:43:41.870Z,4.94
2023-03-27T04:46:11.287Z,4.95
2023-03-27T04:48:40.200Z,4.98
2023-03-27T04:53:50.056Z,4.94
2023-03-27T04:56:17.522Z,4.94
2023-03-27T04:58:46.897Z,4.95
2023-03-27T05:01:13.572Z,4.95
2023-03-27T05:03:40.546Z,4.96
2023-03-27T05:06:10.213Z,4.92
2023-03-27T05:08:36.803Z,4.92
2023-03-27T05:11:05.830Z,4.88
2023-03-27T05:13:32.367Z,4.90
2023-03-27T05:16:01.849Z,4.77
2023-03-27T05:18:30.773Z,4.76
2023-03-27T05:20:59.219Z,4.74
2023-03-27T05:23:26.653Z,4.77
2023-03-27T05:26:01.590Z,4.72
2023-03-27T05:28:31.455Z,4.73
2023-03-27T05:30:58.432Z,5.08
2023-03-27T05:33:25.771Z,5.69
2023-03-27T05:35:57.575Z,5.47
2023-03-27T05:38:30.123Z,4.98
2023-03-27T05:41:04.324Z,4.88
2023-03-27T05:43:30.876Z,4.82
2023-03-27T05:45:57.454Z,4.80
2023-03-27T05:48:24.014Z,4.74
2023-03-27T05:50:55.854Z,4.69
2023-03-27T05:53:28.855Z,4.68
2023-03-27T05:56:02.366Z,4.74
2023-03-27T05:58:32.216Z,4.80
2023-03-27T06:01:01.436Z,4.80
2023-03-27T06:03:31.026Z,4.89
2023-03-27T06:06:00.345Z,4.90
2023-03-27T06:08:30.149Z,4.88
2023-03-27T06:10:57.682Z,4.85
2023-03-27T06:13:24.526Z,4.94
2023-03-27T06:15:53.909Z,4.89
2023-03-27T06:18:20.566Z,4.73
2023-03-27T06:20:47.147Z,4.63
2023-03-27T06:23:14.526Z,4.61
2023-03-27T06:25:44.161Z,4.67
2023-03-27T06:28:10.940Z,4.75
2023-03-27T06:30:38.924Z,4.87
2023-03-27T06:33:07.719Z,5.09
2023-03-27T06:35:35.580Z,5.30
2023-03-27T06:38:07.485Z,5.13
2023-03-27T06:40:36.584Z,5.07
2023-03-27T06:43:05.856Z,5.03
2023-03-27T06:45:35.155Z,4.98
2023-03-27T06:48:18.699Z,4.94
2023-03-27T06:50:49.770Z,4.94
2023-03-27T06:53:27.367Z,5.00
2023-03-27T06:55:57.492Z,4.91
2023-03-27T06:58:24.401Z,4.99
2023-03-27T07:00:51.429Z,5.06
2023-03-27T07:03:20.663Z,5.13
2023-03-27T07:05:49.966Z,5.17
2023-03-27T07:08:24.065Z,5.32
2023-03-27T07:13:27.860Z,5.63
2023-03-27T07:15:55.021Z,5.48
2023-03-27T07:18:24.605Z,5.68
2023-03-27T07:20:51.388Z,5.96
2023-03-27T07:23:20.489Z,6.09
2023-03-27T07:25:51.568Z,5.86
2023-03-27T07:28:21.008Z,5.52
2023-03-27T07:30:47.627Z,5.44
2023-03-27T07:33:14.619Z,5.19
2023-03-27T07:35:48.613Z,5.06
2023-03-27T07:38:16.754Z,5.19
2023-03-27T07:40:44.561Z,5.41
2023-03-27T07:43:11.647Z,5.47
2023-03-27T07:45:38.390Z,5.39
2023-03-27T07:48:14.893Z,5.34
2023-03-27T07:50:44.994Z,5.41
2023-03-27T07:53:33.756Z,5.56
2023-03-27T07:56:01.014Z,5.56
2023-03-27T07:58:27.882Z,5.47
2023-03-27T08:00:58.196Z,4.98
2023-03-27T08:03:26.182Z,4.97
2023-03-27T08:05:54.777Z,4.80
2023-03-27T08:08:24.019Z,4.80
2023-03-27T08:10:53.528Z,4.84
2023-03-27T08:13:20.196Z,5.08
2023-03-27T08:15:46.727Z,5.35
2023-03-27T08:18:13.307Z,5.29
2023-03-27T08:20:42.504Z,5.31
2023-03-27T08:23:11.522Z,5.32
2023-03-27T08:25:42.569Z,5.44
2023-03-27T08:28:12.449Z,5.37
2023-03-27T08:30:39.081Z,5.37
2023-03-27T08:33:09.797Z,5.12
2023-03-27T08:35:37.247Z,5.25
2023-03-27T08:38:13.841Z,5.14
2023-03-27T08:40:54.332Z,5.22
2023-03-27T08:43:27.235Z,5.37
2023-03-27T08:45:59.845Z,5.30
2023-03-27T08:48:34.277Z,5.25
2023-03-27T08:51:06.463Z,5.13
2023-03-27T08:53:39.983Z,5.06
2023-03-27T08:56:13.136Z,5.05
2023-03-27T08:58:40.481Z,5.06
2023-03-27T09:01:30.368Z,5.18
2023-03-27T09:04:00.116Z,5.06
2023-03-27T09:06:30.474Z,5.13
2023-03-27T09:09:02.637Z,5.01
2023-03-27T09:11:50.095Z,5.05
2023-03-27T09:14:36.011Z,5.07
2023-03-27T09:17:30.980Z,5.13
2023-03-27T09:20:11.143Z,5.07
2023-03-27T09:22:44.407Z,5.18
2023-03-27T09:25:29.033Z,5.18
2023-03-27T09:27:58.115Z,5.21
2023-03-27T09:30:27.448Z,5.24
2023-03-27T09:33:03.574Z,5.25
2023-03-27T09:35:35.366Z,5.11
2023-03-27T09:38:10.228Z,5.19
2023-03-27T09:40:49.108Z,4.73
2023-03-27T09:43:22.280Z,4.83
2023-03-27T09:45:57.063Z,4.88
2023-03-27T09:48:45.122Z,4.94
2023-03-27T09:51:40.342Z,4.88
2023-03-27T09:54:08.064Z,4.93
2023-03-27T09:56:46.448Z,5.15
2023-03-27T09:59:25.196Z,4.82
2023-03-27T10:01:55.587Z,4.87
2023-03-27T10:04:24.656Z,4.88
2023-03-27T10:07:05.525Z,4.84
2023-03-27T10:09:37.479Z,4.85
2023-03-27T10:12:07.466Z,4.92
2023-03-27T10:14:43.503Z,4.98
2023-03-27T10:17:43.950Z,5.01
2023-03-27T10:20:15.887Z,5.07
2023-03-27T10:22:52.541Z,5.22
2023-03-27T10:25:46.676Z,5.26
2023-03-27T10:28:23.659Z,5.30
2023-03-27T10:31:03.474Z,5.39
2023-03-27T10:33:31.416Z,5.41
2023-03-27T10:36:01.257Z,5.60
2023-03-27T10:38:28.662Z,5.76
2023-03-27T10:40:58.174Z,6.14
2023-03-27T10:43:36.709Z,6.40
2023-03-27T10:46:12.025Z,6.59
2023-03-27T10:49:06.553Z,6.64
2023-03-27T10:51:45.379Z,6.87
2023-03-27T10:54:42.365Z,7.35
2023-03-27T10:57:17.062Z,7.32
2023-03-27T10:59:56.044Z,7.29
2023-03-27T11:02:33.844Z,7.24
2023-03-27T11:05:14.084Z,7.01
2023-03-27T11:07:54.144Z,7.16
2023-03-27T11:10:26.794Z,7.15
2023-03-27T11:13:01.856Z,7.18
2023-03-27T11:15:38.285Z,7.21
2023-03-27T11:18:32.777Z,7.29
2023-03-27T11:21:07.522Z,7.20
2023-03-27T11:23:38.630Z,7.33
2023-03-27T11:26:07.553Z,7.59
2023-03-27T11:28:48.729Z,7.72
2023-03-27T11:31:40.566Z,7.86
2023-03-27T11:34:13.014Z,7.78
2023-03-27T11:36:53.093Z,7.49
2023-03-27T11:39:53.211Z,7.25
2023-03-27T11:42:24.203Z,6.96
2023-03-27T11:44:55.863Z,6.89
2023-03-27T11:47:43.823Z,6.79
2023-03-27T11:50:44.296Z,6.56
2023-03-27T11:53:28.233Z,6.51
2023-03-27T11:56:12.335Z,6.81
2023-03-27T11:59:08.614Z,6.75
2023-03-27T12:01:42.857Z,7.06
2023-03-27T12:04:28.316Z,7.45
2023-03-27T12:07:08.260Z,7.63
2023-03-27T12:09:52.547Z,7.86
2023-03-27T12:12:46.590Z,7.98
2023-03-27T12:15:45.102Z,7.52
2023-03-27T12:18:17.382Z,6.98
2023-03-27T12:21:18.373Z,7.45
2023-03-27T12:24:04.650Z,7.61
2023-03-27T12:26:43.690Z,7.89
2023-03-27T12:29:23.731Z,8.19
2023-03-27T12:31:52.751Z,8.22
2023-03-27T12:34:50.132Z,8.17
2023-03-27T12:37:23.285Z,8.08
2023-03-27T12:39:57.432Z,7.98
2023-03-27T12:42:44.510Z,7.89
2023-03-27T12:45:16.801Z,8.01
2023-03-27T12:48:06.801Z,8.14
2023-03-27T12:50:58.224Z,7.86
2023-03-27T12:53:27.986Z,7.99
2023-03-27T12:56:17.368Z,7.64
2023-03-27T12:58:46.241Z,7.55
2023-03-27T13:01:26.911Z,7.35
2023-03-27T13:04:24.949Z,7.62
2023-03-27T13:07:23.470Z,8.00
2023-03-27T13:10:11.590Z,7.95
2023-03-27T13:12:53.332Z,7.83
2023-03-27T13:15:29.597Z,7.31
2023-03-27T13:18:08.057Z,7.57
2023-03-27T13:20:49.745Z,7.44
2023-03-27T13:23:37.545Z,7.66
2023-03-27T13:26:08.581Z,8.04
2023-03-27T13:28:40.174Z,8.10
2023-03-27T13:31:11.730Z,8.23
2023-03-27T13:33:59.455Z,8.55
2023-03-27T13:36:26.592Z,8.58
2023-03-27T13:38:56.657Z,8.69
2023-03-27T13:41:52.416Z,8.58
2023-03-27T13:44:34.160Z,8.13
2023-03-27T13:47:09.794Z,7.57
2023-03-27T13:49:42.711Z,7.91
2023-03-27T13:52:32.016Z,8.16
2023-03-27T13:55:19.714Z,8.22
2023-03-27T13:57:49.081Z,8.08
2023-03-27T14:00:20.976Z,8.52
2023-03-27T14:03:11.398Z,8.16
2023-03-27T14:06:07.210Z,8.50
2023-03-27T14:09:06.286Z,8.91
2023-03-27T14:11:38.469Z,8.44
2023-03-27T14:14:31.113Z,8.11
2023-03-27T14:17:04.173Z,8.13
2023-03-27T14:19:37.270Z,8.08
2023-03-27T14:22:19.991Z,8.07
2023-03-27T14:25:00.940Z,8.23
2023-03-27T14:27:32.550Z,8.30
2023-03-27T14:30:15.687Z,8.13
2023-03-27T14:32:43.582Z,7.89
2023-03-27T14:35:46.358Z,7.73
2023-03-27T14:38:26.194Z,7.83
2023-03-27T14:40:57.812Z,7.77
2023-03-27T14:43:27.533Z,7.52
2023-03-27T14:45:59.948Z,6.96
2023-03-27T14:48:30.977Z,7.03
2023-03-27T14:51:04.624Z,7.06
2023-03-27T14:53:36.522Z,7.13
2023-03-27T14:56:22.337Z,7.12
2023-03-27T14:58:53.685Z,7.20
2023-03-27T15:01:22.814Z,7.02
2023-03-27T15:03:56.321Z,7.03
2023-03-27T15:06:26.574Z,7.36
2023-03-27T15:08:59.658Z,7.77
2023-03-27T15:11:33.461Z,8.26
2023-03-27T15:14:04.748Z,8.48
2023-03-27T15:16:35.671Z,7.75
2023-03-27T15:19:21.769Z,8.33
2023-03-27T15:22:01.272Z,8.76
2023-03-27T15:25:07.008Z,8.44
2023-03-27T15:27:42.646Z,8.82
2023-03-27T15:30:21.696Z,8.62
2023-03-27T15:32:52.415Z,8.76
2023-03-27T15:35:34.407Z,8.75
2023-03-27T15:38:02.585Z,8.76
2023-03-27T15:40:42.549Z,8.97
2023-03-27T15:43:15.742Z,8.71
2023-03-27T15:46:17.231Z,8.42
2023-03-27T15:48:50.885Z,7.97
2023-03-27T15:51:20.429Z,8.13
2023-03-27T15:53:56.009Z,7.99
2023-03-27T15:56:31.196Z,7.82
2023-03-27T15:59:07.059Z,7.78
2023-03-27T16:01:52.175Z,7.87
2023-03-27T16:04:24.136Z,7.85
2023-03-27T16:07:06.059Z,7.54
2023-03-27T16:09:49.394Z,7.60
2023-03-27T16:12:22.427Z,7.30
2023-03-27T16:14:52.427Z,7.43
2023-03-27T16:17:25.155Z,7.38
2023-03-27T16:20:01.471Z,7.23
2023-03-27T16:22:32.227Z,7.24
2023-03-27T16:25:00.898Z,7.19
2023-03-27T16:27:33.975Z,7.13
2023-03-27T16:30:02.926Z,7.06
2023-03-27T16:32:29.994Z,7.02
2023-03-27T16:34:59.040Z,6.94
2023-03-27T16:37:28.420Z,6.87
2023-03-27T16:39:55.476Z,6.83
2023-03-27T16:42:26.045Z,6.84
2023-03-27T16:44:53.648Z,6.79
2023-03-27T16:47:23.457Z,6.73
2023-03-27T16:50:03.470Z,6.67
2023-03-27T16:52:39.717Z,6.62
2023-03-27T16:55:07.721Z,6.58
2023-03-27T16:57:37.985Z,6.60
2023-03-27T17:00:11.028Z,6.54
2023-03-27T17:02:41.754Z,6.48
2023-03-27T17:05:11.574Z,6.48
2023-03-27T17:07:38.697Z,6.44
2023-03-27T17:10:05.963Z,6.38
2023-03-27T17:12:35.013Z,6.41
2023-03-27T17:15:01.550Z,6.24
2023-03-27T17:17:30.307Z,6.33
2023-03-27T17:19:57.042Z,6.34
2023-03-27T17:22:23.611Z,6.28
2023-03-27T17:24:57.016Z,6.31
2023-03-27T17:27:26.543Z,6.38
2023-03-27T17:29:56.332Z,6.38
2023-03-27T17:32:27.009Z,6.29
2023-03-27T17:34:54.268Z,6.29
2023-03-27T17:37:23.990Z,6.16
2023-03-27T17:39:50.879Z,6.05
2023-03-27T17:42:20.922Z,5.99
2023-03-27T17:44:50.002Z,5.87
2023-03-27T17:47:16.662Z,5.81
2023-03-27T17:49:45.618Z,5.77
2023-03-27T17:52:13.418Z,5.77
2023-03-27T17:54:40.396Z,5.69
2023-03-27T17:57:07.170Z,5.48
2023-03-27T17:59:33.801Z,5.47
2023-03-27T18:02:00.512Z,5.33
2023-03-27T18:04:27.455Z,5.27
2023-03-27T18:06:54.089Z,5.07
2023-03-27T18:09:20.921Z,5.17
2023-03-27T18:11:47.651Z,5.24
2023-03-27T18:14:14.245Z,5.00
2023-03-27T18:16:40.912Z,4.92
2023-03-27T18:19:10.226Z,4.83
2023-03-27T18:21:36.802Z,4.89
2023-03-27T18:24:06.556Z,4.97
2023-03-27T18:26:35.575Z,5.00
2023-03-27T18:29:02.295Z,4.97
2023-03-27T18:31:29.404Z,4.98
2023-03-27T18:34:01.155Z,4.97
2023-03-27T18:36:27.699Z,4.75
2023-03-27T18:38:56.473Z,4.75
2023-03-27T18:41:23.035Z,4.62
2023-03-27T18:43:54.487Z,4.57
2023-03-27T18:46:21.130Z,4.51
2023-03-27T18:48:49.938Z,4.31
2023-03-27T18:51:18.720Z,4.43
2023-03-27T18:53:52.137Z,4.42
2023-03-27T18:56:18.753Z,4.32
2023-03-27T18:58:48.332Z,4.01
2023-03-27T19:01:14.988Z,4.22
2023-03-27T19:03:42.284Z,4.03
2023-03-27T19:06:11.765Z,3.92
2023-03-27T19:08:42.188Z,3.79
2023-03-27T19:11:10.416Z,3.72
2023-03-27T19:13:39.493Z,3.27
2023-03-27T19:16:14.521Z,3.32
2023-03-27T19:18:42.121Z,3.51
2023-03-27T19:21:08.913Z,3.23
2023-03-27T19:23:35.636Z,3.28
2023-03-27T19:26:09.530Z,2.93
2023-03-27T19:28:37.171Z,2.75
2023-03-27T19:31:07.421Z,2.81
2023-03-27T19:33:39.408Z,3.00
2023-03-27T19:36:08.968Z,3.12
2023-03-27T19:38:38.534Z,2.80
2023-03-27T19:41:08.838Z,2.83
2023-03-27T19:43:35.530Z,2.54
2023-03-27T19:46:14.844Z,2.78
2023-03-27T19:48:53.076Z,2.54
2023-03-27T19:51:22.882Z,2.88
2023-03-27T19:53:49.505Z,2.96
2023-03-27T19:56:18.662Z,2.97
2023-03-27T19:58:45.427Z,2.91
2023-03-27T20:01:11.996Z,2.89
2023-03-27T20:03:39.954Z,2.84
2023-03-27T20:06:18.054Z,2.75
2023-03-27T20:08:47.788Z,2.79
2023-03-27T20:11:14.408Z,2.76
2023-03-27T20:13:53.171Z,2.72
2023-03-27T20:16:24.294Z,2.74
2023-03-27T20:19:17.090Z,2.65
2023-03-27T20:21:48.908Z,2.68
2023-03-27T20:24:18.727Z,2.67
2023-03-27T20:26:53.206Z,2.62
2023-03-27T20:29:24.362Z,2.56
2023-03-27T20:31:51.200Z,2.50
2023-03-27T20:34:24.254Z,2.51
2023-03-27T20:36:58.995Z,2.53
2023-03-27T20:39:27.857Z,2.60
2023-03-27T20:41:58.829Z,2.66
2023-03-27T20:44:35.047Z,2.65
2023-03-27T20:47:10.883Z,2.66
2023-03-27T20:49:42.891Z,2.64
2023-03-27T20:52:11.733Z,2.67
2023-03-27T20:54:38.724Z,2.65
2023-03-27T20:57:05.915Z,2.69
2023-03-27T20:59:34.779Z,2.68
2023-03-27T21:02:01.677Z,2.75
2023-03-27T21:04:31.719Z,2.75
2023-03-27T21:06:59.189Z,2.75
2023-03-27T21:09:27.558Z,2.71
2023-03-27T21:11:57.182Z,2.73
2023-03-27T21:14:26.142Z,2.72
2023-03-27T21:16:55.565Z,2.69
2023-03-27T21:19:22.212Z,2.69
2023-03-27T21:21:51.823Z,2.65
2023-03-27T21:24:23.221Z,2.62
2023-03-27T21:26:49.775Z,2.65
2023-03-27T21:29:20.912Z,2.64
2023-03-27T21:31:47.541Z,2.66
2023-03-27T21:34:19.109Z,2.66
2023-03-27T21:36:45.734Z,2.65
2023-03-27T21:39:14.646Z,2.59
2023-03-27T21:41:41.219Z,2.62
2023-03-27T21:44:07.757Z,2.57
2023-03-27T21:46:36.771Z,2.51
2023-03-27T21:49:05.839Z,2.50
2023-03-27T21:51:34.918Z,2.51
2023-03-27T21:54:03.880Z,2.51
2023-03-27T21:56:35.238Z,2.47
2023-03-27T21:59:04.335Z,2.48
2023-03-27T22:01:30.922Z,2.46
2023-03-27T22:04:02.351Z,2.46
2023-03-27T22:06:29.223Z,2.36
2023-03-27T22:08:56.171Z,2.41
2023-03-27T22:11:25.298Z,2.44
2023-03-27T22:13:54.867Z,2.40
2023-03-27T22:16:24.925Z,2.40
2023-03-27T22:18:51.559Z,2.44
2023-03-27T22:21:31.291Z,2.40
2023-03-27T22:24:01.683Z,2.40
2023-03-27T22:26:37.544Z,2.42
2023-03-27T22:29:09.111Z,2.42
2023-03-27T22:31:39.226Z,2.46
2023-03-27T22:34:05.977Z,2.51
2023-03-27T22:36:35.257Z,2.49
2023-03-27T22:39:06.530Z,2.55
2023-03-27T22:41:33.131Z,2.58
2023-03-27T22:44:01.220Z,2.57
2023-03-27T22:46:28.354Z,2.58
2023-03-27T22:48:56.398Z,2.59
2023-03-27T22:51:23.721Z,2.64
2023-03-27T22:53:52.724Z,2.67
2023-03-27T22:56:21.852Z,2.68
2023-03-27T22:58:48.660Z,2.69
2023-03-27T23:01:17.550Z,2.56
2023-03-27T23:03:44.266Z,2.58
2023-03-27T23:06:22.742Z,2.63
2023-03-27T23:08:52.483Z,2.63
2023-03-27T23:11:19.897Z,2.50
2023-03-27T23:13:49.254Z,2.53
2023-03-27T23:16:18.997Z,2.53
2023-03-27T23:18:45.641Z,2.49
2023-03-27T23:21:16.815Z,2.39
2023-03-27T23:23:46.710Z,2.36
2023-03-27T23:26:13.682Z,2.44
2023-03-27T23:28:46.046Z,2.54
2023-03-27T23:31:13.899Z,2.58
2023-03-27T23:33:47.937Z,2.55
2023-03-27T23:36:24.792Z,2.55
2023-03-27T23:38:56.607Z,2.66
2023-03-27T23:41:25.769Z,2.67
2023-03-27T23:43:53.924Z,2.70
2023-03-27T23:46:20.875Z,2.72
2023-03-27T23:48:49.935Z,2.65
2023-03-27T23:51:17.086Z,2.34
2023-03-27T23:53:46.144Z,2.35
2023-03-27T23:56:12.730Z,2.08
2023-03-27T23:58:41.540Z,2.25
